createdAt,value
2019-03-28T00:02:12.612Z,9.90
2019-03-28T00:04:42.458Z,9.90
2019-03-28T00:07:12.987Z,9.90
2019-03-28T00:10:02.435Z,9.90
2019-03-28T00:12:32.570Z,9.90
2019-03-28T00:15:02.450Z,9.90
2019-03-28T00:17:32.293Z,9.90
2019-03-28T00:20:02.180Z,9.80
2019-03-28T00:22:56.907Z,9.80
2019-03-28T00:25:27.079Z,9.80
2019-03-28T00:27:57.039Z,9.80
2019-03-28T00:30:27.001Z,9.80
2019-03-28T00:32:59.632Z,9.70
2019-03-28T00:35:29.534Z,9.70
2019-03-28T00:38:00.080Z,9.70
2019-03-28T00:40:32.803Z,9.70
2019-03-28T00:43:02.823Z,9.70
2019-03-28T00:45:32.794Z,9.70
2019-03-28T00:48:02.685Z,9.70
2019-03-28T00:50:33.218Z,9.60
2019-03-28T00:53:03.244Z,9.60
2019-03-28T00:55:33.136Z,9.60
2019-03-28T00:58:03.070Z,9.60
2019-03-28T01:00:32.947Z,9.60
2019-03-28T01:03:02.880Z,9.60
2019-03-28T01:05:32.962Z,9.60
2019-03-28T01:08:02.924Z,9.60
2019-03-28T01:10:33.141Z,9.60
2019-03-28T01:13:03.976Z,9.60
2019-03-28T01:15:33.834Z,9.60
2019-03-28T01:18:03.764Z,9.60
2019-03-28T01:20:33.633Z,9.60
2019-03-28T01:23:03.649Z,9.70
2019-03-28T01:25:33.619Z,9.70
2019-03-28T01:28:03.485Z,9.60
2019-03-28T01:30:33.586Z,9.60
2019-03-28T01:33:03.557Z,9.60
2019-03-28T01:35:33.405Z,9.60
2019-03-28T01:38:03.683Z,9.60
2019-03-28T01:40:33.645Z,9.50
2019-03-28T01:43:03.537Z,9.50
2019-03-28T01:45:34.028Z,9.50
2019-03-28T01:48:04.004Z,9.50
2019-03-28T01:50:33.881Z,9.50
2019-03-28T01:53:03.945Z,9.40
2019-03-28T01:55:33.876Z,9.50
2019-03-28T01:58:06.863Z,9.50
2019-03-28T02:00:36.859Z,9.50
2019-03-28T02:03:06.909Z,9.50
2019-03-28T02:05:36.760Z,9.40
2019-03-28T02:08:07.006Z,9.40
2019-03-28T02:10:36.957Z,9.40
2019-03-28T02:13:06.801Z,9.40
2019-03-28T02:15:36.742Z,9.40
2019-03-28T02:18:06.658Z,9.40
2019-03-28T02:20:36.666Z,9.40
2019-03-28T02:23:06.636Z,9.40
2019-03-28T02:25:36.577Z,9.40
2019-03-28T02:28:06.489Z,9.30
2019-03-28T02:30:36.485Z,9.30
2019-03-28T02:33:06.350Z,9.30
2019-03-28T02:35:36.197Z,9.30
2019-03-28T02:38:06.075Z,9.40
2019-03-28T02:40:36.135Z,9.40
2019-03-28T02:43:06.089Z,9.40
2019-03-28T02:45:35.933Z,9.30
2019-03-28T02:48:05.797Z,9.30
2019-03-28T02:50:35.778Z,9.30
2019-03-28T02:53:05.633Z,9.30
2019-03-28T02:55:36.333Z,9.30
2019-03-28T02:58:06.264Z,9.20
2019-03-28T03:00:36.159Z,9.20
2019-03-28T03:03:06.035Z,9.20
2019-03-28T03:05:35.909Z,9.10
2019-03-28T03:08:05.849Z,9.10
2019-03-28T03:10:35.721Z,9.10
2019-03-28T03:13:05.606Z,9.10
2019-03-28T03:15:35.504Z,9.10
2019-03-28T03:18:08.440Z,9.10
2019-03-28T03:20:38.341Z,9.10
2019-03-28T03:23:08.215Z,9.10
2019-03-28T03:25:38.060Z,9.10
2019-03-28T03:28:07.980Z,9.10
2019-03-28T03:30:37.932Z,9.10
2019-03-28T03:33:09.155Z,9.10
2019-03-28T03:35:39.478Z,9.10
2019-03-28T03:38:09.361Z,9.10
2019-03-28T03:40:39.208Z,9.10
2019-03-28T03:43:09.153Z,9.10
2019-03-28T03:45:39.033Z,9.10
2019-03-28T03:48:08.858Z,9.00
2019-03-28T03:50:38.750Z,8.90
2019-03-28T03:53:08.649Z,8.90
2019-03-28T03:55:38.563Z,8.90
2019-03-28T03:58:16.090Z,8.90
2019-03-28T04:00:40.431Z,8.90
2019-03-28T04:03:22.268Z,8.90
2019-03-28T04:05:59.991Z,8.90
2019-03-28T04:08:29.916Z,9.00
2019-03-28T04:10:59.791Z,8.90
2019-03-28T04:13:29.673Z,8.90
2019-03-28T04:15:59.649Z,8.90
2019-03-28T04:18:29.924Z,8.90
2019-03-28T04:20:59.971Z,8.90
2019-03-28T04:23:29.961Z,8.90
2019-03-28T04:25:59.812Z,8.90
2019-03-28T04:28:32.064Z,8.90
2019-03-28T04:31:01.199Z,8.90
2019-03-28T04:33:31.066Z,8.90
2019-03-28T04:36:00.909Z,8.90
2019-03-28T04:38:30.795Z,8.90
2019-03-28T04:41:00.712Z,8.90
2019-03-28T04:43:30.562Z,8.90
2019-03-28T04:46:00.661Z,8.90
2019-03-28T04:48:30.508Z,8.90
2019-03-28T04:51:22.386Z,8.90
2019-03-28T04:53:52.279Z,8.90
2019-03-28T04:56:22.304Z,8.90
2019-03-28T04:58:52.326Z,8.90
2019-03-28T05:01:22.198Z,9.00
2019-03-28T05:03:52.080Z,8.90
2019-03-28T05:06:21.988Z,9.00
2019-03-28T05:08:51.948Z,8.90
2019-03-28T05:11:21.840Z,8.90
2019-03-28T05:13:51.762Z,8.90
2019-03-28T05:16:21.680Z,8.90
2019-03-28T05:18:51.539Z,8.90
2019-03-28T05:21:21.448Z,8.80
2019-03-28T05:23:51.280Z,8.80
2019-03-28T05:26:21.156Z,8.80
2019-03-28T05:28:57.544Z,8.80
2019-03-28T05:31:22.536Z,8.80
2019-03-28T05:34:11.270Z,8.80
2019-03-28T05:36:41.127Z,8.80
2019-03-28T05:39:11.016Z,8.90
2019-03-28T05:41:40.917Z,8.90
2019-03-28T05:44:10.771Z,8.90
2019-03-28T05:46:40.669Z,8.90
2019-03-28T05:49:10.706Z,8.90
2019-03-28T05:51:40.601Z,8.90
2019-03-28T05:54:10.701Z,9.00
2019-03-28T05:56:40.733Z,9.00
2019-03-28T05:59:11.539Z,9.00
2019-03-28T06:01:41.739Z,9.00
2019-03-28T06:04:11.837Z,9.00
2019-03-28T06:06:41.775Z,9.00
2019-03-28T06:09:11.768Z,9.10
2019-03-28T06:11:41.691Z,9.10
2019-03-28T06:14:11.870Z,9.10
2019-03-28T06:16:41.975Z,9.20
2019-03-28T06:19:12.371Z,9.20
2019-03-28T06:21:42.314Z,9.30
2019-03-28T06:24:12.208Z,9.40
2019-03-28T06:26:42.091Z,9.40
2019-03-28T06:29:23.225Z,9.50
2019-03-28T06:31:54.651Z,9.50
2019-03-28T06:34:15.106Z,9.60
2019-03-28T06:36:45.054Z,9.70
2019-03-28T06:39:14.939Z,9.80
2019-03-28T06:41:44.760Z,10.00
2019-03-28T06:44:14.726Z,10.10
2019-03-28T06:46:44.636Z,10.10
2019-03-28T06:49:14.542Z,10.20
2019-03-28T06:51:44.493Z,10.40
2019-03-28T06:54:14.464Z,10.50
2019-03-28T06:56:44.386Z,10.80
2019-03-28T06:59:14.268Z,11.00
2019-03-28T07:01:44.208Z,11.10
2019-03-28T07:04:14.081Z,11.40
2019-03-28T07:06:43.988Z,11.50
2019-03-28T07:09:13.890Z,11.60
2019-03-28T07:11:43.848Z,11.40
2019-03-28T07:14:13.847Z,11.60
2019-03-28T07:16:43.799Z,11.40
2019-03-28T07:19:13.795Z,11.30
2019-03-28T07:21:44.339Z,11.10
2019-03-28T07:24:14.507Z,11.10
2019-03-28T07:26:44.449Z,11.00
2019-03-28T07:29:14.411Z,11.00
2019-03-28T07:31:44.309Z,10.80
2019-03-28T07:34:14.243Z,10.70
2019-03-28T07:36:44.119Z,10.70
2019-03-28T07:39:14.216Z,10.60
2019-03-28T07:41:44.075Z,10.60
2019-03-28T07:44:13.976Z,10.60
2019-03-28T07:46:43.891Z,10.70
2019-03-28T07:49:13.767Z,10.70
2019-03-28T07:51:43.701Z,10.80
2019-03-28T07:54:13.624Z,11.00
2019-03-28T07:56:43.543Z,11.20
2019-03-28T07:59:13.471Z,11.20
2019-03-28T08:01:43.414Z,11.20
2019-03-28T08:04:13.364Z,11.20
2019-03-28T08:06:49.596Z,11.20
2019-03-28T08:09:17.422Z,11.20
2019-03-28T08:11:48.236Z,11.20
2019-03-28T08:14:36.955Z,11.30
2019-03-28T08:17:06.976Z,11.50
2019-03-28T08:19:37.975Z,11.70
2019-03-28T08:22:08.463Z,11.80
2019-03-28T08:24:38.347Z,11.90
2019-03-28T08:27:08.580Z,12.00
2019-03-28T08:29:38.440Z,12.30
2019-03-28T08:32:13.548Z,12.80
2019-03-28T08:34:44.614Z,13.10
2019-03-28T08:37:15.062Z,13.20
2019-03-28T08:39:45.155Z,13.30
2019-03-28T08:42:15.104Z,13.20
2019-03-28T08:44:45.100Z,13.00
2019-03-28T08:47:14.975Z,13.30
2019-03-28T08:49:44.929Z,13.10
2019-03-28T08:52:14.903Z,13.30
2019-03-28T08:54:44.797Z,13.50
2019-03-28T08:57:14.713Z,13.70
2019-03-28T08:59:44.639Z,13.80
2019-03-28T09:02:14.683Z,13.60
2019-03-28T09:04:44.576Z,13.40
2019-03-28T09:07:17.217Z,13.10
2019-03-28T09:09:46.069Z,13.00
2019-03-28T09:12:15.965Z,12.70
2019-03-28T09:14:45.901Z,12.70
2019-03-28T09:17:15.885Z,12.80
2019-03-28T09:19:45.846Z,13.00
2019-03-28T09:22:15.962Z,13.30
2019-03-28T09:24:46.047Z,13.60
2019-03-28T09:27:16.107Z,14.00
2019-03-28T09:29:45.977Z,14.80
2019-03-28T09:32:15.985Z,15.50
2019-03-28T09:34:45.833Z,15.30
2019-03-28T09:37:16.035Z,15.40
2019-03-28T09:39:45.940Z,15.30
2019-03-28T09:42:15.862Z,15.40
2019-03-28T09:44:45.810Z,15.10
2019-03-28T09:47:15.746Z,15.10
2019-03-28T09:49:45.611Z,15.20
2019-03-28T09:52:15.498Z,15.20
2019-03-28T09:54:45.416Z,15.30
2019-03-28T09:57:15.330Z,15.70
2019-03-28T09:59:45.182Z,15.60
2019-03-28T10:02:16.431Z,15.20
2019-03-28T10:04:46.322Z,15.30
2019-03-28T10:07:16.229Z,15.60
2019-03-28T10:09:46.301Z,15.70
2019-03-28T10:12:16.395Z,16.20
2019-03-28T10:14:46.380Z,16.30
2019-03-28T10:17:16.306Z,16.00
2019-03-28T10:19:46.245Z,16.00
2019-03-28T10:22:16.230Z,15.60
2019-03-28T10:24:46.180Z,15.40
2019-03-28T10:27:19.066Z,15.20
2019-03-28T10:29:47.653Z,15.30
2019-03-28T10:32:17.565Z,15.40
2019-03-28T10:34:47.503Z,15.30
2019-03-28T10:37:17.437Z,15.20
2019-03-28T10:39:47.394Z,14.80
2019-03-28T10:42:17.715Z,14.40
2019-03-28T10:44:47.669Z,14.30
2019-03-28T10:47:17.620Z,14.10
2019-03-28T10:49:47.600Z,14.10
2019-03-28T10:52:17.638Z,14.20
2019-03-28T10:54:47.561Z,14.20
2019-03-28T10:57:29.461Z,14.00
2019-03-28T10:59:49.138Z,13.60
2019-03-28T11:02:19.079Z,13.40
2019-03-28T11:04:48.988Z,13.30
2019-03-28T11:07:18.929Z,13.40
2019-03-28T11:09:48.874Z,13.50
2019-03-28T11:12:18.834Z,13.80
2019-03-28T11:14:48.831Z,13.80
2019-03-28T11:17:18.837Z,13.60
2019-03-28T11:19:48.809Z,13.50
2019-03-28T11:22:18.777Z,13.50
2019-03-28T11:24:48.775Z,13.60
2019-03-28T11:27:18.774Z,13.80
2019-03-28T11:29:48.691Z,14.00
2019-03-28T11:32:18.748Z,14.10
2019-03-28T11:34:48.840Z,14.00
2019-03-28T11:39:50.467Z,13.60
2019-03-28T11:42:20.308Z,13.80
2019-03-28T11:42:35.512Z,13.90
2019-03-28T11:44:50.360Z,14.00
2019-03-28T11:47:22.267Z,14.20
2019-03-28T11:49:52.145Z,14.40
2019-03-28T11:52:22.043Z,14.50
2019-03-28T11:54:51.921Z,14.70
2019-03-28T11:57:21.883Z,15.10
2019-03-28T11:59:51.762Z,15.10
2019-03-28T12:02:21.736Z,15.30
2019-03-28T12:04:51.629Z,15.30
2019-03-28T12:07:21.531Z,15.40
2019-03-28T12:09:51.377Z,15.40
2019-03-28T12:12:21.277Z,15.30
2019-03-28T12:14:51.204Z,15.40
2019-03-28T12:17:21.216Z,15.40
2019-03-28T12:19:51.206Z,15.40
2019-03-28T12:22:21.224Z,15.30
2019-03-28T12:24:51.093Z,15.10
2019-03-28T12:27:21.023Z,14.90
2019-03-28T12:29:50.976Z,14.90
2019-03-28T12:32:20.931Z,15.00
2019-03-28T12:34:50.827Z,15.10
2019-03-28T12:37:20.784Z,15.30
2019-03-28T12:39:53.473Z,15.40
2019-03-28T12:42:23.367Z,15.30
2019-03-28T12:44:57.345Z,15.20
2019-03-28T12:47:24.974Z,15.00
2019-03-28T12:49:54.968Z,15.00
2019-03-28T12:52:24.948Z,15.10
2019-03-28T12:54:54.946Z,15.30
2019-03-28T12:57:24.905Z,15.40
2019-03-28T12:59:54.863Z,15.30
2019-03-28T13:02:30.158Z,15.30
2019-03-28T13:04:56.454Z,15.40
2019-03-28T13:07:26.350Z,15.50
2019-03-28T13:09:56.210Z,15.00
2019-03-28T13:12:26.300Z,14.60
2019-03-28T13:14:56.341Z,14.40
2019-03-28T13:17:26.271Z,14.50
2019-03-28T13:19:56.219Z,14.40
2019-03-28T13:22:26.191Z,14.30
2019-03-28T13:24:56.143Z,14.40
2019-03-28T13:27:26.071Z,14.30
2019-03-28T13:29:55.941Z,14.50
2019-03-28T13:32:25.790Z,14.50
2019-03-28T13:34:55.571Z,14.30
2019-03-28T13:37:25.423Z,14.20
2019-03-28T13:39:55.218Z,14.00
2019-03-28T13:42:25.056Z,14.00
2019-03-28T13:44:54.852Z,14.20
2019-03-28T13:47:24.809Z,14.30
2019-03-28T13:49:54.737Z,14.50
2019-03-28T13:52:24.533Z,14.70
2019-03-28T13:54:54.352Z,14.80
2019-03-28T13:57:24.234Z,14.60
2019-03-28T14:00:12.998Z,14.80
2019-03-28T14:02:54.852Z,15.00
2019-03-28T14:05:14.436Z,14.80
2019-03-28T14:07:44.386Z,14.90
2019-03-28T14:10:14.249Z,15.20
2019-03-28T14:12:44.083Z,15.30
2019-03-28T14:15:13.983Z,15.40
2019-03-28T14:17:43.815Z,15.40
2019-03-28T14:20:14.015Z,15.40
2019-03-28T14:22:43.993Z,15.00
2019-03-28T14:25:13.864Z,15.10
2019-03-28T14:27:44.113Z,15.30
2019-03-28T14:30:18.307Z,15.30
2019-03-28T14:32:53.627Z,15.30
2019-03-28T14:35:19.856Z,15.30
2019-03-28T14:37:49.683Z,15.30
2019-03-28T14:40:19.614Z,15.20
2019-03-28T14:42:49.521Z,15.10
2019-03-28T14:45:19.676Z,14.90
2019-03-28T14:47:49.431Z,14.70
2019-03-28T14:50:32.996Z,14.60
2019-03-28T14:53:03.212Z,14.60
2019-03-28T14:55:33.671Z,14.60
2019-03-28T14:58:04.791Z,14.30
2019-03-28T15:00:53.984Z,14.20
2019-03-28T15:03:26.782Z,14.10
2019-03-28T15:05:55.411Z,14.10
2019-03-28T15:08:25.508Z,13.80
2019-03-28T15:10:55.488Z,13.60
2019-03-28T15:13:28.041Z,13.60
2019-03-28T15:15:57.855Z,13.60
2019-03-28T15:18:27.800Z,13.70
2019-03-28T15:20:57.708Z,13.60
2019-03-28T15:23:27.931Z,13.50
2019-03-28T15:25:57.770Z,13.60
2019-03-28T15:28:27.666Z,13.70
2019-03-28T15:30:57.520Z,13.60
2019-03-28T15:33:38.846Z,13.60
2019-03-28T15:35:58.804Z,13.60
2019-03-28T15:38:31.089Z,13.50
2019-03-28T15:41:00.128Z,13.50
2019-03-28T15:43:33.271Z,13.40
2019-03-28T15:46:03.339Z,13.40
2019-03-28T15:48:33.325Z,13.40
2019-03-28T15:51:03.300Z,13.30
2019-03-28T15:53:33.092Z,13.20
2019-03-28T15:56:02.917Z,13.10
2019-03-28T15:58:32.817Z,13.00
2019-03-28T16:01:02.946Z,13.00
2019-03-28T16:03:33.834Z,13.00
2019-03-28T16:06:03.682Z,13.00
2019-03-28T16:08:33.566Z,13.00
2019-03-28T16:11:04.103Z,13.10
2019-03-28T16:13:33.859Z,13.20
2019-03-28T16:16:03.688Z,13.20
2019-03-28T16:18:33.524Z,13.10
2019-03-28T16:21:03.377Z,13.10
2019-03-28T16:23:33.138Z,13.10
2019-03-28T16:26:02.948Z,12.90
2019-03-28T16:28:32.788Z,12.90
2019-03-28T16:31:02.578Z,12.80
2019-03-28T16:33:32.402Z,12.80
2019-03-28T16:36:02.243Z,12.70
2019-03-28T16:38:33.042Z,12.70
2019-03-28T16:41:03.246Z,12.60
2019-03-28T16:43:34.162Z,12.60
2019-03-28T16:46:07.441Z,12.70
2019-03-28T16:48:35.699Z,12.70
2019-03-28T16:51:05.620Z,12.70
2019-03-28T16:53:35.744Z,12.70
2019-03-28T16:56:05.822Z,12.60
2019-03-28T16:58:35.746Z,12.60
2019-03-28T17:01:05.968Z,12.70
2019-03-28T17:03:35.819Z,12.70
2019-03-28T17:06:05.645Z,12.80
2019-03-28T17:08:35.764Z,12.70
2019-03-28T17:11:05.603Z,12.70
2019-03-28T17:13:35.625Z,12.70
2019-03-28T17:16:06.954Z,12.70
2019-03-28T17:18:36.859Z,12.70
2019-03-28T17:21:06.656Z,12.70
2019-03-28T17:23:36.873Z,12.70
2019-03-28T17:26:06.762Z,12.70
2019-03-28T17:28:36.763Z,12.70
2019-03-28T17:31:06.689Z,12.70
2019-03-28T17:33:36.439Z,12.70
2019-03-28T17:36:06.653Z,12.70
2019-03-28T17:38:36.552Z,12.70
2019-03-28T17:41:06.752Z,12.80
2019-03-28T17:43:36.985Z,12.70
2019-03-28T17:46:06.835Z,12.70
2019-03-28T17:48:36.720Z,12.60
2019-03-28T17:51:06.658Z,12.60
2019-03-28T17:53:36.505Z,12.60
2019-03-28T17:56:06.308Z,12.60
2019-03-28T17:58:36.226Z,12.50
2019-03-28T18:01:06.511Z,12.60
2019-03-28T18:03:36.259Z,12.60
2019-03-28T18:06:06.087Z,12.60
2019-03-28T18:08:36.256Z,12.50
2019-03-28T18:11:06.254Z,12.50
2019-03-28T18:13:36.463Z,12.50
2019-03-28T18:16:07.561Z,12.50
2019-03-28T18:18:37.522Z,12.50
2019-03-28T18:21:07.419Z,12.40
2019-03-28T18:23:37.227Z,12.40
2019-03-28T18:26:07.083Z,12.40
2019-03-28T18:28:36.990Z,12.40
2019-03-28T18:31:06.857Z,12.40
2019-03-28T18:33:36.867Z,12.40
2019-03-28T18:36:06.796Z,12.30
2019-03-28T18:38:36.920Z,12.30
2019-03-28T18:41:07.100Z,12.30
2019-03-28T18:43:37.019Z,12.40
2019-03-28T18:46:09.181Z,12.40
2019-03-28T18:48:39.149Z,12.40
2019-03-28T18:51:09.051Z,12.40
2019-03-28T18:53:38.901Z,12.40
2019-03-28T18:56:08.707Z,12.40
2019-03-28T18:58:38.521Z,12.40
2019-03-28T19:01:08.440Z,12.40
2019-03-28T19:03:38.443Z,12.30
2019-03-28T19:06:08.324Z,12.30
2019-03-28T19:08:38.368Z,12.20
2019-03-28T19:11:08.337Z,12.20
2019-03-28T19:13:38.300Z,12.20
2019-03-28T19:16:08.316Z,12.20
2019-03-28T19:18:38.306Z,12.10
2019-03-28T19:21:08.444Z,12.00
2019-03-28T19:23:38.330Z,11.90
2019-03-28T19:26:10.978Z,11.90
2019-03-28T19:28:41.112Z,11.80
2019-03-28T19:31:10.988Z,11.70
2019-03-28T19:33:41.047Z,11.60
2019-03-28T19:36:11.284Z,11.50
2019-03-28T19:38:41.158Z,11.40
2019-03-28T19:41:11.053Z,11.30
2019-03-28T19:43:41.451Z,11.30
2019-03-28T19:46:11.295Z,11.20
2019-03-28T19:48:41.149Z,11.10
2019-03-28T19:51:10.972Z,11.00
2019-03-28T19:53:43.913Z,10.90
2019-03-28T19:56:14.146Z,10.80
2019-03-28T19:58:45.970Z,10.70
2019-03-28T20:01:15.603Z,10.70
2019-03-28T20:03:47.000Z,10.60
2019-03-28T20:06:22.321Z,10.60
2019-03-28T20:08:48.666Z,10.50
2019-03-28T20:11:18.564Z,10.40
2019-03-28T20:13:48.381Z,10.40
2019-03-28T20:16:18.305Z,10.30
2019-03-28T20:18:48.165Z,10.20
2019-03-28T20:21:20.363Z,10.00
2019-03-28T20:23:50.259Z,10.00
2019-03-28T20:26:20.225Z,9.90
2019-03-28T20:28:52.528Z,9.90
2019-03-28T20:31:24.024Z,9.80
2019-03-28T20:33:53.941Z,9.70
2019-03-28T20:36:36.975Z,9.70
2019-03-28T20:39:03.922Z,9.60
2019-03-28T20:41:30.975Z,9.50
2019-03-28T20:44:36.715Z,9.50
2019-03-28T20:47:06.543Z,9.40
2019-03-28T20:49:36.497Z,9.30
2019-03-28T20:52:09.631Z,9.30
2019-03-28T20:54:39.768Z,9.30
2019-03-28T20:57:09.988Z,9.20
2019-03-28T20:59:40.159Z,9.20
2019-03-28T21:02:10.023Z,9.10
2019-03-28T21:04:40.385Z,9.10
2019-03-28T21:07:10.323Z,9.00
2019-03-28T21:09:40.349Z,8.90
2019-03-28T21:12:10.188Z,8.90
2019-03-28T21:14:40.041Z,8.80
2019-03-28T21:17:11.587Z,8.80
2019-03-28T21:19:41.432Z,8.80
2019-03-28T21:22:11.303Z,8.80
2019-03-28T21:24:41.484Z,8.70
2019-03-28T21:27:11.355Z,8.70
2019-03-28T21:29:48.808Z,8.60
2019-03-28T21:32:12.933Z,8.60
2019-03-28T21:34:42.794Z,8.60
2019-03-28T21:37:18.061Z,8.50
2019-03-28T21:39:47.793Z,8.50
2019-03-28T21:42:17.624Z,8.50
2019-03-28T21:44:48.777Z,8.40
2019-03-28T21:47:18.810Z,8.40
2019-03-28T21:49:48.575Z,8.40
2019-03-28T21:52:18.409Z,8.30
2019-03-28T21:54:48.271Z,8.30
2019-03-28T21:57:18.027Z,8.20
2019-03-28T21:59:48.310Z,8.10
2019-03-28T22:02:19.053Z,8.10
2019-03-28T22:04:48.913Z,8.10
2019-03-28T22:07:18.806Z,8.00
2019-03-28T22:09:50.412Z,8.00
2019-03-28T22:12:20.926Z,7.90
2019-03-28T22:14:50.728Z,7.90
2019-03-28T22:17:20.550Z,7.90
2019-03-28T22:19:51.097Z,7.80
2019-03-28T22:22:21.454Z,7.80
2019-03-28T22:24:51.302Z,7.80
2019-03-28T22:27:21.217Z,7.70
2019-03-28T22:29:51.097Z,7.70
2019-03-28T22:32:20.845Z,7.70
2019-03-28T22:34:50.730Z,7.70
2019-03-28T22:37:20.573Z,7.60
2019-03-28T22:39:50.386Z,7.60
2019-03-28T22:42:20.427Z,7.60
2019-03-28T22:44:50.959Z,7.50
2019-03-28T22:47:20.976Z,7.50
2019-03-28T22:49:50.837Z,7.50
2019-03-28T22:52:20.645Z,7.40
2019-03-28T22:54:50.571Z,7.40
2019-03-28T22:57:20.411Z,7.40
2019-03-28T22:59:50.330Z,7.50
2019-03-28T23:02:20.315Z,7.50
2019-03-28T23:04:50.155Z,7.40
2019-03-28T23:07:23.043Z,7.40
2019-03-28T23:09:53.225Z,7.30
2019-03-28T23:12:23.038Z,7.30
2019-03-28T23:14:52.927Z,7.20
2019-03-28T23:17:22.712Z,7.20
2019-03-28T23:19:52.588Z,7.10
2019-03-28T23:22:22.485Z,7.10
2019-03-28T23:24:52.346Z,7.10
2019-03-28T23:27:22.182Z,7.00
2019-03-28T23:29:51.980Z,7.00
2019-03-28T23:32:21.805Z,7.00
2019-03-28T23:34:51.954Z,7.00
2019-03-28T23:37:24.910Z,6.90
2019-03-28T23:39:53.474Z,6.90
2019-03-28T23:42:42.018Z,6.90
2019-03-28T23:45:12.854Z,6.90
2019-03-28T23:47:42.827Z,6.90
2019-03-28T23:50:13.109Z,6.80
2019-03-28T23:52:43.105Z,6.80
2019-03-28T23:55:13.038Z,6.70
2019-03-28T23:57:42.881Z,6.70
